SKVP/VUP METAR and TAF weather

Enter ICAO airport designator
Station Type Date Time Source
SKVP METAR 2019/02/21 15:00 UTC NOAA

SKVP 211500Z 07016KT 9999 FEW020 31/18 A2994


Station Type Date Time Source
SKVP Decoded METAR 2019/02/21 15:00 UTC NOAA

Valledupar / Alfonso Lopez, Colombia (SKVP) 10-26N 073-15W
Feb 21, 2019 - 10:00 AM EST / 2019.02.21 1500 UTC
Wind: from the ENE (070 degrees) at 18 MPH (16 KT):0
Visibility: greater than 7 mile(s):0
Sky conditions: mostly clear
Temperature: 87 F (31 C)
Dew Point: 64 F (18 C)
Relative Humidity: 45%
Pressure (altimeter): 29.94 in. Hg (1013 hPa)
ob: SKVP 211500Z 07016KT 9999 FEW020 31/18 A2994
cycle: 15

Station Type Date Time Source
SKVP TAF UTC NOAA

Error!


Example: see airport list